sensor_id;sensor_type;location;lat;lon;timestamp;pressure;altitude;pressure_sealevel;temperature;humidity
60719;BME280;46567;51.660;5.824;2023-07-31T00:01:59;129330.0;;;190.6;100.0
60719;BME280;46567;51.660;5.824;2023-07-31T00:06:59;129320.0;;;190.6;100.0
60719;BME280;46567;51.660;5.824;2023-07-31T00:11:59;129320.0;;;190.6;100.0
60719;BME280;46567;51.660;5.824;2023-07-31T00:16:59;129300.0;;;190.6;100.0
60719;BME280;46567;51.660;5.824;2023-07-31T00:21:59;129310.0;;;190.6;100.0
60719;BME280;46567;51.660;5.824;2023-07-31T00:26:59;129300.0;;;190.6;100.0
60719;BME280;46567;51.660;5.824;2023-07-31T00:31:59;129290.0;;;190.6;100.0
60719;BME280;46567;51.660;5.824;2023-07-31T00:36:59;129320.0;;;190.6;100.0
60719;BME280;46567;51.660;5.824;2023-07-31T00:41:59;129310.0;;;190.6;100.0
60719;BME280;46567;51.660;5.824;2023-07-31T00:46:59;129280.0;;;190.6;100.0
60719;BME280;46567;51.660;5.824;2023-07-31T00:52:00;129300.0;;;190.6;100.0
60719;BME280;46567;51.660;5.824;2023-07-31T00:56:59;129310.0;;;190.6;100.0
60719;BME280;46567;51.660;5.824;2023-07-31T01:02:00;129300.0;;;190.6;100.0
60719;BME280;46567;51.660;5.824;2023-07-31T01:07:04;129280.0;;;190.6;100.0
60719;BME280;46567;51.660;5.824;2023-07-31T01:12:03;129290.0;;;190.6;100.0
60719;BME280;46567;51.660;5.824;2023-07-31T01:17:00;129270.0;;;190.6;100.0
60719;BME280;46567;51.660;5.824;2023-07-31T01:23:01;129270.0;;;190.6;100.0
60719;BME280;46567;51.660;5.824;2023-07-31T01:27:06;129280.0;;;190.6;100.0
60719;BME280;46567;51.660;5.824;2023-07-31T01:32:01;129280.0;;;190.6;100.0
60719;BME280;46567;51.660;5.824;2023-07-31T01:36:59;129270.0;;;190.6;100.0
60719;BME280;46567;51.660;5.824;2023-07-31T01:41:59;129270.0;;;190.6;100.0
60719;BME280;46567;51.660;5.824;2023-07-31T01:46:59;129270.0;;;190.6;100.0
60719;BME280;46567;51.660;5.824;2023-07-31T01:51:59;129260.0;;;190.6;100.0
60719;BME280;46567;51.660;5.824;2023-07-31T02:02:00;129270.0;;;190.6;100.0
60719;BME280;46567;51.660;5.824;2023-07-31T02:06:59;129260.0;;;190.6;100.0
60719;BME280;46567;51.660;5.824;2023-07-31T02:11:59;129260.0;;;190.6;100.0
60719;BME280;46567;51.660;5.824;2023-07-31T02:17:00;129250.0;;;190.6;100.0
60719;BME280;46567;51.660;5.824;2023-07-31T02:21:59;129250.0;;;190.6;100.0
60719;BME280;46567;51.660;5.824;2023-07-31T02:26:59;129240.0;;;190.6;100.0
60719;BME280;46567;51.660;5.824;2023-07-31T02:31:59;129260.0;;;190.6;100.0
60719;BME280;46567;51.660;5.824;2023-07-31T02:36:59;129250.0;;;190.6;100.0
60719;BME280;46567;51.660;5.824;2023-07-31T02:41:59;129260.0;;;190.6;100.0
60719;BME280;46567;51.660;5.824;2023-07-31T02:46:59;129260.0;;;190.6;100.0
60719;BME280;46567;51.660;5.824;2023-07-31T02:51:59;129260.0;;;190.6;100.0
60719;BME280;46567;51.660;5.824;2023-07-31T02:56:59;129250.0;;;190.6;100.0
60719;BME280;46567;51.660;5.824;2023-07-31T03:01:59;129250.0;;;190.6;100.0
60719;BME280;46567;51.660;5.824;2023-07-31T03:06:59;129240.0;;;190.6;100.0
60719;BME280;46567;51.660;5.824;2023-07-31T03:11:59;129250.0;;;190.6;100.0
60719;BME280;46567;51.660;5.824;2023-07-31T03:16:59;129250.0;;;190.6;100.0
60719;BME280;46567;51.660;5.824;2023-07-31T03:21:59;129260.0;;;190.6;100.0
60719;BME280;46567;51.660;5.824;2023-07-31T03:26:59;129260.0;;;190.6;100.0
60719;BME280;46567;51.660;5.824;2023-07-31T03:31:59;129260.0;;;190.6;100.0
60719;BME280;46567;51.660;5.824;2023-07-31T03:36:59;129250.0;;;190.6;100.0
60719;BME280;46567;51.660;5.824;2023-07-31T03:41:59;129240.0;;;190.6;100.0
60719;BME280;46567;51.660;5.824;2023-07-31T03:46:59;129220.0;;;190.6;100.0
60719;BME280;46567;51.660;5.824;2023-07-31T03:51:59;129210.0;;;190.6;100.0
60719;BME280;46567;51.660;5.824;2023-07-31T03:56:59;129200.0;;;190.6;100.0
60719;BME280;46567;51.660;5.824;2023-07-31T04:01:59;129210.0;;;190.6;100.0
60719;BME280;46567;51.660;5.824;2023-07-31T04:06:59;129200.0;;;190.6;100.0
60719;BME280;46567;51.660;5.824;2023-07-31T04:11:59;129190.0;;;190.6;100.0
60719;BME280;46567;51.660;5.824;2023-07-31T04:16:59;129180.0;;;190.6;100.0
60719;BME280;46567;51.660;5.824;2023-07-31T04:26:59;129160.0;;;190.6;100.0
60719;BME280;46567;51.660;5.824;2023-07-31T04:31:59;129140.0;;;190.6;100.0
60719;BME280;46567;51.660;5.824;2023-07-31T04:36:59;129130.0;;;190.6;100.0
60719;BME280;46567;51.660;5.824;2023-07-31T04:41:59;129110.0;;;190.6;100.0
60719;BME280;46567;51.660;5.824;2023-07-31T04:46:59;129100.0;;;190.6;100.0
60719;BME280;46567;51.660;5.824;2023-07-31T04:51:59;129090.0;;;190.6;100.0
60719;BME280;46567;51.660;5.824;2023-07-31T04:56:59;129070.0;;;190.6;100.0
60719;BME280;46567;51.660;5.824;2023-07-31T05:01:59;129070.0;;;190.6;100.0
60719;BME280;46567;51.660;5.824;2023-07-31T05:06:59;129050.0;;;190.6;100.0
60719;BME280;46567;51.660;5.824;2023-07-31T05:11:59;129050.0;;;190.6;100.0
60719;BME280;46567;51.660;5.824;2023-07-31T05:16:59;129030.0;;;190.6;100.0
60719;BME280;46567;51.660;5.824;2023-07-31T05:21:59;129020.0;;;190.6;100.0
60719;BME280;46567;51.660;5.824;2023-07-31T05:26:59;129010.0;;;190.6;100.0
60719;BME280;46567;51.660;5.824;2023-07-31T05:31:59;128980.0;;;190.6;100.0
60719;BME280;46567;51.660;5.824;2023-07-31T05:36:59;128970.0;;;190.6;100.0
60719;BME280;46567;51.660;5.824;2023-07-31T05:41:59;128970.0;;;190.6;100.0
60719;BME280;46567;51.660;5.824;2023-07-31T05:46:59;128960.0;;;190.6;100.0
60719;BME280;46567;51.660;5.824;2023-07-31T05:51:59;128970.0;;;190.6;100.0
60719;BME280;46567;51.660;5.824;2023-07-31T05:57:00;128960.0;;;190.6;100.0
60719;BME280;46567;51.660;5.824;2023-07-31T06:01:59;128950.0;;;190.6;100.0
60719;BME280;46567;51.660;5.824;2023-07-31T06:06:59;128960.0;;;190.6;100.0
60719;BME280;46567;51.660;5.824;2023-07-31T06:11:59;128970.0;;;190.6;100.0
60719;BME280;46567;51.660;5.824;2023-07-31T06:16:59;128970.0;;;190.6;100.0
60719;BME280;46567;51.660;5.824;2023-07-31T06:21:59;128970.0;;;190.6;100.0
60719;BME280;46567;51.660;5.824;2023-07-31T06:31:59;128960.0;;;190.6;100.0
60719;BME280;46567;51.660;5.824;2023-07-31T06:36:59;128960.0;;;190.6;100.0
60719;BME280;46567;51.660;5.824;2023-07-31T06:42:00;128950.0;;;190.6;100.0
60719;BME280;46567;51.660;5.824;2023-07-31T06:46:59;128930.0;;;190.6;100.0
60719;BME280;46567;51.660;5.824;2023-07-31T06:51:59;128940.0;;;190.6;100.0
60719;BME280;46567;51.660;5.824;2023-07-31T07:01:59;128890.0;;;190.6;100.0
60719;BME280;46567;51.660;5.824;2023-07-31T07:07:00;128880.0;;;190.6;100.0
60719;BME280;46567;51.660;5.824;2023-07-31T07:11:59;128870.0;;;190.6;100.0
60719;BME280;46567;51.660;5.824;2023-07-31T07:17:00;128860.0;;;190.6;100.0
60719;BME280;46567;51.660;5.824;2023-07-31T07:21:59;128860.0;;;190.6;100.0
60719;BME280;46567;51.660;5.824;2023-07-31T07:26:59;128860.0;;;190.6;100.0
60719;BME280;46567;51.660;5.824;2023-07-31T07:32:00;128850.0;;;190.6;100.0
60719;BME280;46567;51.660;5.824;2023-07-31T07:36:59;128840.0;;;190.6;100.0
60719;BME280;46567;51.660;5.824;2023-07-31T07:42:00;128840.0;;;190.6;100.0
60719;BME280;46567;51.660;5.824;2023-07-31T07:47:00;128830.0;;;190.6;100.0
60719;BME280;46567;51.660;5.824;2023-07-31T07:52:00;128810.0;;;190.6;100.0
60719;BME280;46567;51.660;5.824;2023-07-31T07:56:59;128800.0;;;190.6;100.0
60719;BME280;46567;51.660;5.824;2023-07-31T08:01:59;128800.0;;;190.6;100.0
60719;BME280;46567;51.660;5.824;2023-07-31T08:11:59;128790.0;;;190.6;100.0
60719;BME280;46567;51.660;5.824;2023-07-31T08:17:00;128790.0;;;190.6;100.0
60719;BME280;46567;51.660;5.824;2023-07-31T08:21:59;128790.0;;;190.6;100.0
60719;BME280;46567;51.660;5.824;2023-07-31T08:26:59;128810.0;;;190.6;100.0
60719;BME280;46567;51.660;5.824;2023-07-31T08:32:00;128800.0;;;190.6;100.0
60719;BME280;46567;51.660;5.824;2023-07-31T08:36:59;128790.0;;;190.6;100.0
60719;BME280;46567;51.660;5.824;2023-07-31T08:42:00;128770.0;;;190.6;100.0
60719;BME280;46567;51.660;5.824;2023-07-31T08:47:00;128760.0;;;190.6;100.0
60719;BME280;46567;51.660;5.824;2023-07-31T08:52:00;128760.0;;;190.6;100.0
60719;BME280;46567;51.660;5.824;2023-07-31T08:57:00;128770.0;;;190.6;100.0
60719;BME280;46567;51.660;5.824;2023-07-31T09:02:08;128760.0;;;190.6;100.0
60719;BME280;46567;51.660;5.824;2023-07-31T09:07:03;128770.0;;;190.6;100.0
60719;BME280;46567;51.660;5.824;2023-07-31T09:12:00;128760.0;;;190.6;100.0
60719;BME280;46567;51.660;5.824;2023-07-31T09:16:59;128750.0;;;190.6;100.0
60719;BME280;46567;51.660;5.824;2023-07-31T09:22:00;128750.0;;;190.6;100.0
60719;BME280;46567;51.660;5.824;2023-07-31T09:27:01;128750.0;;;190.6;100.0
60719;BME280;46567;51.660;5.824;2023-07-31T09:32:00;128740.0;;;190.6;100.0
60719;BME280;46567;51.660;5.824;2023-07-31T09:37:01;128740.0;;;190.6;100.0
60719;BME280;46567;51.660;5.824;2023-07-31T09:41:59;128740.0;;;190.6;100.0
60719;BME280;46567;51.660;5.824;2023-07-31T09:47:00;128710.0;;;190.6;100.0
60719;BME280;46567;51.660;5.824;2023-07-31T09:52:00;128700.0;;;190.6;100.0
60719;BME280;46567;51.660;5.824;2023-07-31T09:57:00;128680.0;;;190.6;100.0
60719;BME280;46567;51.660;5.824;2023-07-31T10:02:00;128660.0;;;190.6;100.0
60719;BME280;46567;51.660;5.824;2023-07-31T10:07:01;128630.0;;;190.6;100.0
60719;BME280;46567;51.660;5.824;2023-07-31T10:12:06;128610.0;;;190.6;100.0
60719;BME280;46567;51.660;5.824;2023-07-31T10:17:00;128590.0;;;190.6;100.0
60719;BME280;46567;51.660;5.824;2023-07-31T10:22:00;128570.0;;;190.6;100.0
60719;BME280;46567;51.660;5.824;2023-07-31T10:27:01;128540.0;;;190.6;100.0
60719;BME280;46567;51.660;5.824;2023-07-31T10:32:00;128510.0;;;190.6;100.0
60719;BME280;46567;51.660;5.824;2023-07-31T10:37:20;128480.0;;;190.6;100.0
60719;BME280;46567;51.660;5.824;2023-07-31T10:42:08;128440.0;;;190.6;100.0
60719;BME280;46567;51.660;5.824;2023-07-31T10:47:00;128400.0;;;190.6;100.0
60719;BME280;46567;51.660;5.824;2023-07-31T10:52:02;128380.0;;;190.6;100.0
60719;BME280;46567;51.660;5.824;2023-07-31T10:57:00;128370.0;;;190.6;100.0
60719;BME280;46567;51.660;5.824;2023-07-31T11:02:00;128360.0;;;190.6;100.0
60719;BME280;46567;51.660;5.824;2023-07-31T11:07:01;128370.0;;;190.6;100.0
60719;BME280;46567;51.660;5.824;2023-07-31T11:12:00;128370.0;;;190.6;100.0
60719;BME280;46567;51.660;5.824;2023-07-31T11:17:00;128400.0;;;190.6;100.0
60719;BME280;46567;51.660;5.824;2023-07-31T11:22:00;128420.0;;;190.6;100.0
60719;BME280;46567;51.660;5.824;2023-07-31T11:27:00;128410.0;;;190.6;100.0
60719;BME280;46567;51.660;5.824;2023-07-31T11:32:00;128370.0;;;190.6;100.0
60719;BME280;46567;51.660;5.824;2023-07-31T11:37:00;128310.0;;;190.6;100.0
60719;BME280;46567;51.660;5.824;2023-07-31T11:42:00;128250.0;;;190.6;100.0
60719;BME280;46567;51.660;5.824;2023-07-31T11:47:00;128220.0;;;190.6;100.0
60719;BME280;46567;51.660;5.824;2023-07-31T11:52:00;128190.0;;;190.6;100.0
60719;BME280;46567;51.660;5.824;2023-07-31T11:57:00;128140.0;;;190.6;100.0
60719;BME280;46567;51.660;5.824;2023-07-31T12:02:00;128120.0;;;190.6;100.0
60719;BME280;46567;51.660;5.824;2023-07-31T12:07:00;128110.0;;;190.6;100.0
60719;BME280;46567;51.660;5.824;2023-07-31T12:12:00;128110.0;;;190.6;100.0
60719;BME280;46567;51.660;5.824;2023-07-31T12:17:04;128110.0;;;190.6;100.0
60719;BME280;46567;51.660;5.824;2023-07-31T12:22:00;128120.0;;;190.6;100.0
60719;BME280;46567;51.660;5.824;2023-07-31T12:27:00;128130.0;;;190.6;100.0
60719;BME280;46567;51.660;5.824;2023-07-31T12:32:00;128150.0;;;190.6;100.0
60719;BME280;46567;51.660;5.824;2023-07-31T12:37:00;128140.0;;;190.6;100.0
60719;BME280;46567;51.660;5.824;2023-07-31T12:42:00;128150.0;;;190.6;100.0
60719;BME280;46567;51.660;5.824;2023-07-31T12:47:00;128130.0;;;190.6;100.0
60719;BME280;46567;51.660;5.824;2023-07-31T12:52:00;128110.0;;;190.6;100.0
60719;BME280;46567;51.660;5.824;2023-07-31T12:57:00;128100.0;;;190.6;100.0
60719;BME280;46567;51.660;5.824;2023-07-31T13:02:00;128090.0;;;190.6;100.0
60719;BME280;46567;51.660;5.824;2023-07-31T13:07:00;128090.0;;;190.6;100.0
60719;BME280;46567;51.660;5.824;2023-07-31T13:12:00;128080.0;;;190.6;100.0
60719;BME280;46567;51.660;5.824;2023-07-31T13:17:00;128090.0;;;190.6;100.0
60719;BME280;46567;51.660;5.824;2023-07-31T13:22:00;128110.0;;;190.6;100.0
60719;BME280;46567;51.660;5.824;2023-07-31T13:27:00;128130.0;;;190.6;100.0
60719;BME280;46567;51.660;5.824;2023-07-31T13:32:00;128120.0;;;190.6;100.0
60719;BME280;46567;51.660;5.824;2023-07-31T13:37:00;128110.0;;;190.6;100.0
60719;BME280;46567;51.660;5.824;2023-07-31T13:42:00;128090.0;;;190.6;100.0
60719;BME280;46567;51.660;5.824;2023-07-31T13:47:00;128080.0;;;190.6;100.0
60719;BME280;46567;51.660;5.824;2023-07-31T13:52:00;128040.0;;;190.6;100.0
60719;BME280;46567;51.660;5.824;2023-07-31T13:57:00;128030.0;;;190.6;100.0
60719;BME280;46567;51.660;5.824;2023-07-31T14:02:02;128030.0;;;190.6;100.0
60719;BME280;46567;51.660;5.824;2023-07-31T14:07:00;128040.0;;;190.6;100.0
60719;BME280;46567;51.660;5.824;2023-07-31T14:12:00;128060.0;;;190.6;100.0
60719;BME280;46567;51.660;5.824;2023-07-31T14:17:00;128090.0;;;190.6;100.0
60719;BME280;46567;51.660;5.824;2023-07-31T14:22:00;128140.0;;;190.6;100.0
60719;BME280;46567;51.660;5.824;2023-07-31T14:27:00;128150.0;;;190.6;100.0
60719;BME280;46567;51.660;5.824;2023-07-31T14:32:00;128150.0;;;190.6;100.0
60719;BME280;46567;51.660;5.824;2023-07-31T14:37:00;128160.0;;;190.6;100.0
60719;BME280;46567;51.660;5.824;2023-07-31T14:42:00;128190.0;;;190.6;100.0
60719;BME280;46567;51.660;5.824;2023-07-31T14:47:00;128190.0;;;190.6;100.0
60719;BME280;46567;51.660;5.824;2023-07-31T14:52:00;128180.0;;;190.6;100.0
60719;BME280;46567;51.660;5.824;2023-07-31T14:57:00;128180.0;;;190.6;100.0
60719;BME280;46567;51.660;5.824;2023-07-31T15:02:00;128190.0;;;190.6;100.0
60719;BME280;46567;51.660;5.824;2023-07-31T15:07:00;128170.0;;;190.6;100.0
60719;BME280;46567;51.660;5.824;2023-07-31T15:12:00;128170.0;;;190.6;100.0
60719;BME280;46567;51.660;5.824;2023-07-31T15:17:00;128180.0;;;190.6;100.0
60719;BME280;46567;51.660;5.824;2023-07-31T15:22:00;128190.0;;;190.6;100.0
60719;BME280;46567;51.660;5.824;2023-07-31T15:27:00;128190.0;;;190.6;100.0
60719;BME280;46567;51.660;5.824;2023-07-31T15:32:00;128190.0;;;190.6;100.0
60719;BME280;46567;51.660;5.824;2023-07-31T15:37:00;128180.0;;;190.6;100.0
60719;BME280;46567;51.660;5.824;2023-07-31T15:42:00;128150.0;;;190.6;100.0
60719;BME280;46567;51.660;5.824;2023-07-31T15:47:00;128160.0;;;190.6;100.0
60719;BME280;46567;51.660;5.824;2023-07-31T15:52:00;128170.0;;;190.6;100.0
60719;BME280;46567;51.660;5.824;2023-07-31T15:57:00;128150.0;;;190.6;100.0
60719;BME280;46567;51.660;5.824;2023-07-31T16:02:00;128150.0;;;190.6;100.0
60719;BME280;46567;51.660;5.824;2023-07-31T16:07:00;128150.0;;;190.6;100.0
60719;BME280;46567;51.660;5.824;2023-07-31T16:12:00;128140.0;;;190.6;100.0
60719;BME280;46567;51.660;5.824;2023-07-31T16:17:00;128140.0;;;190.6;100.0
60719;BME280;46567;51.660;5.824;2023-07-31T16:22:00;128140.0;;;190.6;100.0
60719;BME280;46567;51.660;5.824;2023-07-31T16:27:00;128150.0;;;190.6;100.0
60719;BME280;46567;51.660;5.824;2023-07-31T16:32:00;128160.0;;;190.6;100.0
60719;BME280;46567;51.660;5.824;2023-07-31T16:37:00;128160.0;;;190.6;100.0
60719;BME280;46567;51.660;5.824;2023-07-31T16:42:00;128170.0;;;190.6;100.0
60719;BME280;46567;51.660;5.824;2023-07-31T16:47:00;128180.0;;;190.6;100.0
60719;BME280;46567;51.660;5.824;2023-07-31T16:52:00;128180.0;;;190.6;100.0
60719;BME280;46567;51.660;5.824;2023-07-31T16:57:00;128170.0;;;190.6;100.0
60719;BME280;46567;51.660;5.824;2023-07-31T17:02:00;128160.0;;;190.6;100.0
60719;BME280;46567;51.660;5.824;2023-07-31T17:07:00;128140.0;;;190.6;100.0
60719;BME280;46567;51.660;5.824;2023-07-31T17:12:00;128150.0;;;190.6;100.0
60719;BME280;46567;51.660;5.824;2023-07-31T17:17:00;128140.0;;;190.6;100.0
60719;BME280;46567;51.660;5.824;2023-07-31T17:22:00;128140.0;;;190.6;100.0
60719;BME280;46567;51.660;5.824;2023-07-31T17:27:00;128150.0;;;190.6;100.0
60719;BME280;46567;51.660;5.824;2023-07-31T17:32:00;128140.0;;;190.6;100.0
60719;BME280;46567;51.660;5.824;2023-07-31T17:37:00;128140.0;;;190.6;100.0
60719;BME280;46567;51.660;5.824;2023-07-31T17:42:00;128130.0;;;190.6;100.0
60719;BME280;46567;51.660;5.824;2023-07-31T17:47:00;128130.0;;;190.6;100.0
60719;BME280;46567;51.660;5.824;2023-07-31T17:52:01;128120.0;;;190.6;100.0
60719;BME280;46567;51.660;5.824;2023-07-31T17:57:00;128120.0;;;190.6;100.0
60719;BME280;46567;51.660;5.824;2023-07-31T18:02:00;128120.0;;;190.6;100.0
60719;BME280;46567;51.660;5.824;2023-07-31T18:07:00;128110.0;;;190.6;100.0
60719;BME280;46567;51.660;5.824;2023-07-31T18:12:00;128100.0;;;190.6;100.0
60719;BME280;46567;51.660;5.824;2023-07-31T18:17:00;128090.0;;;190.6;100.0
60719;BME280;46567;51.660;5.824;2023-07-31T18:22:00;128090.0;;;190.6;100.0
60719;BME280;46567;51.660;5.824;2023-07-31T18:27:00;128060.0;;;190.6;100.0
60719;BME280;46567;51.660;5.824;2023-07-31T18:32:00;128040.0;;;190.6;100.0
60719;BME280;46567;51.660;5.824;2023-07-31T18:37:00;128020.0;;;190.6;100.0
60719;BME280;46567;51.660;5.824;2023-07-31T18:42:00;128010.0;;;190.6;100.0
60719;BME280;46567;51.660;5.824;2023-07-31T18:47:00;128020.0;;;190.6;100.0
60719;BME280;46567;51.660;5.824;2023-07-31T18:52:00;128040.0;;;190.6;100.0
60719;BME280;46567;51.660;5.824;2023-07-31T18:57:00;128060.0;;;190.6;100.0
60719;BME280;46567;51.660;5.824;2023-07-31T19:02:00;128070.0;;;190.6;100.0
60719;BME280;46567;51.660;5.824;2023-07-31T19:07:00;128120.0;;;190.6;100.0
60719;BME280;46567;51.660;5.824;2023-07-31T19:12:00;128160.0;;;190.6;100.0
60719;BME280;46567;51.660;5.824;2023-07-31T19:17:00;128180.0;;;190.6;100.0
60719;BME280;46567;51.660;5.824;2023-07-31T19:22:00;128200.0;;;190.6;100.0
60719;BME280;46567;51.660;5.824;2023-07-31T19:27:00;128210.0;;;190.6;100.0
60719;BME280;46567;51.660;5.824;2023-07-31T19:32:00;128190.0;;;190.6;100.0
60719;BME280;46567;51.660;5.824;2023-07-31T19:37:00;128170.0;;;190.6;100.0
60719;BME280;46567;51.660;5.824;2023-07-31T19:42:00;128170.0;;;190.6;100.0
60719;BME280;46567;51.660;5.824;2023-07-31T19:47:00;128170.0;;;190.6;100.0
60719;BME280;46567;51.660;5.824;2023-07-31T19:52:00;128180.0;;;190.6;100.0
60719;BME280;46567;51.660;5.824;2023-07-31T19:57:00;128160.0;;;190.6;100.0
60719;BME280;46567;51.660;5.824;2023-07-31T20:02:00;128130.0;;;190.6;100.0
60719;BME280;46567;51.660;5.824;2023-07-31T20:07:00;128140.0;;;190.6;100.0
60719;BME280;46567;51.660;5.824;2023-07-31T20:12:00;128130.0;;;190.6;100.0
60719;BME280;46567;51.660;5.824;2023-07-31T20:17:00;128110.0;;;190.6;100.0
60719;BME280;46567;51.660;5.824;2023-07-31T20:22:00;128130.0;;;190.6;100.0
60719;BME280;46567;51.660;5.824;2023-07-31T20:27:00;128090.0;;;190.6;100.0
60719;BME280;46567;51.660;5.824;2023-07-31T20:32:00;128100.0;;;190.6;100.0
60719;BME280;46567;51.660;5.824;2023-07-31T20:37:00;128110.0;;;190.6;100.0
60719;BME280;46567;51.660;5.824;2023-07-31T20:42:00;128090.0;;;190.6;100.0
60719;BME280;46567;51.660;5.824;2023-07-31T20:47:00;128070.0;;;190.6;100.0
60719;BME280;46567;51.660;5.824;2023-07-31T20:52:00;128050.0;;;190.6;100.0
60719;BME280;46567;51.660;5.824;2023-07-31T20:57:00;128020.0;;;190.6;100.0
60719;BME280;46567;51.660;5.824;2023-07-31T21:02:00;128020.0;;;190.6;100.0
60719;BME280;46567;51.660;5.824;2023-07-31T21:07:00;127990.0;;;190.6;100.0
60719;BME280;46567;51.660;5.824;2023-07-31T21:12:00;127990.0;;;190.6;100.0
60719;BME280;46567;51.660;5.824;2023-07-31T21:17:00;127980.0;;;190.6;100.0
60719;BME280;46567;51.660;5.824;2023-07-31T21:22:00;127980.0;;;190.6;100.0
60719;BME280;46567;51.660;5.824;2023-07-31T21:27:00;127980.0;;;190.6;100.0
60719;BME280;46567;51.660;5.824;2023-07-31T21:32:00;127980.0;;;190.6;100.0
60719;BME280;46567;51.660;5.824;2023-07-31T21:37:00;127970.0;;;190.6;100.0
60719;BME280;46567;51.660;5.824;2023-07-31T21:42:00;127970.0;;;190.6;100.0
60719;BME280;46567;51.660;5.824;2023-07-31T21:47:00;127980.0;;;190.6;100.0
60719;BME280;46567;51.660;5.824;2023-07-31T21:52:00;127980.0;;;190.6;100.0
60719;BME280;46567;51.660;5.824;2023-07-31T21:57:00;127960.0;;;190.6;100.0
60719;BME280;46567;51.660;5.824;2023-07-31T22:02:00;127970.0;;;190.6;100.0
60719;BME280;46567;51.660;5.824;2023-07-31T22:07:00;127960.0;;;190.6;100.0
60719;BME280;46567;51.660;5.824;2023-07-31T22:12:00;127950.0;;;190.6;100.0
60719;BME280;46567;51.660;5.824;2023-07-31T22:17:00;127950.0;;;190.6;100.0
60719;BME280;46567;51.660;5.824;2023-07-31T22:22:00;127940.0;;;190.6;100.0
60719;BME280;46567;51.660;5.824;2023-07-31T22:27:00;127930.0;;;190.6;100.0
60719;BME280;46567;51.660;5.824;2023-07-31T22:32:00;127920.0;;;190.6;100.0
60719;BME280;46567;51.660;5.824;2023-07-31T22:37:00;127920.0;;;190.6;100.0
60719;BME280;46567;51.660;5.824;2023-07-31T22:42:00;127900.0;;;190.6;100.0
60719;BME280;46567;51.660;5.824;2023-07-31T22:47:00;127880.0;;;190.6;100.0
60719;BME280;46567;51.660;5.824;2023-07-31T22:52:00;127860.0;;;190.6;100.0
60719;BME280;46567;51.660;5.824;2023-07-31T22:57:00;127880.0;;;190.6;100.0
60719;BME280;46567;51.660;5.824;2023-07-31T23:02:00;127880.0;;;190.6;100.0
60719;BME280;46567;51.660;5.824;2023-07-31T23:07:00;127870.0;;;190.6;100.0
60719;BME280;46567;51.660;5.824;2023-07-31T23:12:00;127860.0;;;190.6;100.0
60719;BME280;46567;51.660;5.824;2023-07-31T23:17:00;127840.0;;;190.6;100.0
60719;BME280;46567;51.660;5.824;2023-07-31T23:22:00;127830.0;;;190.6;100.0
60719;BME280;46567;51.660;5.824;2023-07-31T23:27:01;127830.0;;;190.6;100.0
60719;BME280;46567;51.660;5.824;2023-07-31T23:32:00;127820.0;;;190.6;100.0
60719;BME280;46567;51.660;5.824;2023-07-31T23:37:00;127820.0;;;190.6;100.0
60719;BME280;46567;51.660;5.824;2023-07-31T23:42:00;127810.0;;;190.6;100.0
60719;BME280;46567;51.660;5.824;2023-07-31T23:47:00;127800.0;;;190.6;100.0
60719;BME280;46567;51.660;5.824;2023-07-31T23:52:00;127800.0;;;190.6;100.0
60719;BME280;46567;51.660;5.824;2023-07-31T23:57:00;127810.0;;;190.6;100.0
